createdAt,value
2018-03-27T00:01:11.532Z,2.98
2018-03-27T00:03:39.879Z,2.95
2018-03-27T00:06:08.161Z,2.99
2018-03-27T00:08:36.457Z,2.96
2018-03-27T00:11:05.454Z,3.20
2018-03-27T00:13:33.736Z,2.98
2018-03-27T00:16:02.267Z,2.99
2018-03-27T00:18:30.810Z,3.09
2018-03-27T00:20:59.836Z,3.06
2018-03-27T00:23:28.110Z,3.10
2018-03-27T00:25:57.425Z,2.97
2018-03-27T00:28:43.322Z,3.06
2018-03-27T00:31:29.392Z,3.01
2018-03-27T00:34:16.255Z,3.02
2018-03-27T00:37:02.232Z,2.99
2018-03-27T00:39:48.184Z,3.08
2018-03-27T00:45:26.050Z,2.97
2018-03-27T00:47:55.784Z,3.03
2018-03-27T00:50:24.886Z,3.12
2018-03-27T00:52:53.994Z,3.05
2018-03-27T00:55:22.284Z,3.07
2018-03-27T00:57:52.351Z,3.07
2018-03-27T01:00:20.621Z,3.12
2018-03-27T01:02:48.900Z,2.99
2018-03-27T01:05:17.191Z,3.02
2018-03-27T01:07:45.465Z,2.96
2018-03-27T01:10:13.730Z,2.92
2018-03-27T01:12:42.054Z,3.01
2018-03-27T01:15:12.330Z,2.92
2018-03-27T01:17:40.841Z,2.87
2018-03-27T01:20:09.219Z,2.94
2018-03-27T01:22:37.495Z,2.89
2018-03-27T01:25:05.764Z,2.91
2018-03-27T01:27:34.989Z,2.85
2018-03-27T01:30:03.348Z,2.80
2018-03-27T01:32:31.628Z,2.87
2018-03-27T01:34:59.939Z,2.89
2018-03-27T01:37:28.950Z,2.89
2018-03-27T01:39:57.984Z,2.88
2018-03-27T01:42:26.279Z,2.90
2018-03-27T01:44:54.557Z,2.91
2018-03-27T01:47:23.613Z,2.88
2018-03-27T01:49:52.524Z,2.85
2018-03-27T01:52:21.160Z,3.03
2018-03-27T01:54:49.964Z,2.94
2018-03-27T01:57:19.028Z,2.99
2018-03-27T01:59:48.210Z,2.83
2018-03-27T02:02:16.492Z,2.76
2018-03-27T02:04:45.084Z,2.79
2018-03-27T02:07:14.019Z,2.85
2018-03-27T02:09:43.979Z,2.87
2018-03-27T02:12:17.704Z,2.96
2018-03-27T02:14:51.604Z,2.95
2018-03-27T02:17:25.392Z,2.89
2018-03-27T02:19:59.205Z,2.86
2018-03-27T02:22:28.199Z,2.82
2018-03-27T02:24:56.494Z,2.81
2018-03-27T02:27:25.601Z,2.82
2018-03-27T02:29:53.967Z,2.90
2018-03-27T02:32:22.240Z,2.90
2018-03-27T02:34:50.576Z,2.90
2018-03-27T02:37:18.892Z,2.93
2018-03-27T02:39:47.164Z,2.96
2018-03-27T02:42:16.270Z,3.04
2018-03-27T02:44:44.651Z,2.96
2018-03-27T02:47:13.621Z,2.94
2018-03-27T02:49:41.908Z,2.93
2018-03-27T02:52:11.242Z,2.99
2018-03-27T02:54:41.140Z,2.97
2018-03-27T02:57:10.200Z,3.00
2018-03-27T02:59:38.504Z,2.92
2018-03-27T03:02:06.811Z,2.95
2018-03-27T03:04:35.098Z,2.79
2018-03-27T03:07:04.144Z,2.73
2018-03-27T03:09:32.569Z,2.89
2018-03-27T03:12:01.580Z,2.84
2018-03-27T03:14:31.454Z,2.85
2018-03-27T03:16:59.737Z,2.76
2018-03-27T03:19:28.036Z,2.80
2018-03-27T03:21:56.304Z,2.80
2018-03-27T03:24:24.601Z,2.89
2018-03-27T03:26:52.879Z,2.93
2018-03-27T03:29:21.188Z,2.96
2018-03-27T03:31:49.940Z,2.93
2018-03-27T03:34:18.630Z,2.79
2018-03-27T03:36:46.965Z,2.82
2018-03-27T03:39:15.214Z,2.89
2018-03-27T03:41:44.344Z,2.84
2018-03-27T03:44:12.636Z,2.90
2018-03-27T03:46:40.997Z,2.92
2018-03-27T03:49:11.048Z,2.91
2018-03-27T03:51:39.327Z,2.96
2018-03-27T03:54:08.500Z,2.90
2018-03-27T03:56:37.550Z,2.91
2018-03-27T03:59:07.012Z,2.81
2018-03-27T04:01:35.309Z,2.91
2018-03-27T04:04:03.646Z,3.10
2018-03-27T04:06:31.913Z,3.02
2018-03-27T04:09:00.203Z,2.94
2018-03-27T04:11:28.484Z,2.89
2018-03-27T04:13:56.768Z,2.91
2018-03-27T04:16:25.053Z,2.96
2018-03-27T04:18:53.320Z,2.97
2018-03-27T04:21:23.080Z,2.94
2018-03-27T04:23:51.389Z,3.04
2018-03-27T04:26:19.681Z,3.02
2018-03-27T04:28:47.972Z,3.01
2018-03-27T04:31:16.440Z,3.02
2018-03-27T04:33:44.749Z,3.05
2018-03-27T04:36:13.956Z,3.04
2018-03-27T04:38:42.792Z,2.93
2018-03-27T04:41:11.700Z,3.08
2018-03-27T04:43:39.974Z,2.97
2018-03-27T04:46:08.287Z,2.96
2018-03-27T04:48:36.555Z,2.98
2018-03-27T04:51:04.840Z,2.90
2018-03-27T04:53:33.295Z,2.90
2018-03-27T04:56:01.568Z,2.92
2018-03-27T04:58:30.489Z,2.92
2018-03-27T05:00:58.801Z,2.80
2018-03-27T05:03:28.801Z,2.81
2018-03-27T05:05:57.076Z,2.92
2018-03-27T05:08:25.344Z,3.06
2018-03-27T05:10:53.699Z,2.98
2018-03-27T05:13:22.912Z,2.93
2018-03-27T05:15:51.614Z,2.98
2018-03-27T05:18:20.073Z,3.03
2018-03-27T05:20:48.447Z,3.00
2018-03-27T05:23:17.070Z,2.96
2018-03-27T05:25:45.724Z,3.01
2018-03-27T05:28:14.076Z,2.96
2018-03-27T05:30:42.650Z,3.02
2018-03-27T05:33:11.779Z,3.08
2018-03-27T05:35:41.475Z,3.11
2018-03-27T05:38:09.760Z,3.16
2018-03-27T05:40:38.359Z,3.06
2018-03-27T05:43:06.647Z,3.11
2018-03-27T05:45:34.921Z,2.98
2018-03-27T05:48:03.245Z,3.13
2018-03-27T05:50:32.280Z,3.17
2018-03-27T05:53:00.681Z,3.15
2018-03-27T05:55:28.960Z,3.09
2018-03-27T05:57:57.607Z,3.11
2018-03-27T06:00:26.851Z,3.12
2018-03-27T06:02:55.129Z,3.16
2018-03-27T06:05:23.400Z,3.21
2018-03-27T06:07:51.681Z,3.30
2018-03-27T06:10:20.460Z,3.38
2018-03-27T06:12:48.835Z,3.31
2018-03-27T06:15:17.211Z,3.32
2018-03-27T06:17:45.481Z,3.27
2018-03-27T06:20:14.607Z,3.25
2018-03-27T06:22:43.067Z,3.33
2018-03-27T06:25:11.347Z,3.36
2018-03-27T06:27:40.054Z,3.47
2018-03-27T06:30:08.776Z,3.53
2018-03-27T06:32:38.372Z,3.56
2018-03-27T06:35:06.678Z,3.43
2018-03-27T06:37:35.848Z,3.44
2018-03-27T06:40:04.119Z,3.49
2018-03-27T06:42:32.470Z,3.58
2018-03-27T06:45:00.762Z,3.74
2018-03-27T06:47:29.648Z,3.88
2018-03-27T06:49:59.500Z,3.82
2018-03-27T06:52:33.675Z,3.86
2018-03-27T06:55:04.181Z,3.88
2018-03-27T06:57:35.158Z,3.99
2018-03-27T07:00:05.274Z,4.05
2018-03-27T07:02:34.552Z,4.15
2018-03-27T07:05:04.213Z,3.97
2018-03-27T07:07:34.904Z,4.09
2018-03-27T07:10:03.719Z,4.17
2018-03-27T07:12:33.584Z,4.14
2018-03-27T07:15:02.440Z,4.26
2018-03-27T07:17:33.657Z,4.46
2018-03-27T07:20:04.972Z,4.66
2018-03-27T07:22:35.523Z,4.68
2018-03-27T07:25:05.573Z,4.59
2018-03-27T07:27:35.229Z,4.82
2018-03-27T07:30:05.170Z,4.88
2018-03-27T07:32:36.324Z,4.87
2018-03-27T07:35:04.601Z,4.96
2018-03-27T07:37:33.621Z,5.09
2018-03-27T07:40:05.624Z,5.08
2018-03-27T07:42:34.928Z,5.21
2018-03-27T07:45:04.826Z,5.28
2018-03-27T07:47:35.487Z,5.31
2018-03-27T07:50:04.149Z,5.26
2018-03-27T07:52:33.332Z,5.38
2018-03-27T07:55:02.049Z,5.64
2018-03-27T07:57:30.360Z,5.62
2018-03-27T07:59:58.670Z,5.53
2018-03-27T08:02:28.646Z,5.67
2018-03-27T08:04:57.920Z,5.83
2018-03-27T08:07:26.516Z,5.76
2018-03-27T08:09:55.697Z,5.82
2018-03-27T08:12:25.341Z,5.90
2018-03-27T08:14:54.327Z,6.10
2018-03-27T08:17:23.835Z,6.07
2018-03-27T08:19:52.104Z,6.16
2018-03-27T08:22:20.917Z,6.08
2018-03-27T08:24:50.102Z,6.09
2018-03-27T08:27:18.375Z,6.19
2018-03-27T08:29:46.659Z,6.25
2018-03-27T08:32:16.160Z,6.25
2018-03-27T08:34:46.278Z,6.21
2018-03-27T08:37:15.839Z,6.35
2018-03-27T08:39:44.169Z,6.48
2018-03-27T08:42:12.869Z,6.40
2018-03-27T08:44:41.257Z,6.59
2018-03-27T08:47:09.816Z,6.58
2018-03-27T08:49:39.176Z,6.50
2018-03-27T08:52:07.987Z,6.56
2018-03-27T08:54:37.847Z,6.66
2018-03-27T08:57:07.121Z,6.65
2018-03-27T08:59:35.409Z,6.75
2018-03-27T09:02:04.928Z,6.79
2018-03-27T09:04:33.396Z,6.89
2018-03-27T09:07:03.355Z,6.99
2018-03-27T09:09:32.025Z,7.07
2018-03-27T09:12:00.402Z,7.14
2018-03-27T09:14:29.063Z,7.23
2018-03-27T09:16:57.472Z,7.14
2018-03-27T09:19:25.755Z,7.17
2018-03-27T09:21:54.788Z,7.21
2018-03-27T09:24:23.829Z,7.31
2018-03-27T09:26:52.149Z,7.55
2018-03-27T09:29:21.413Z,7.72
2018-03-27T09:31:49.680Z,7.78
2018-03-27T09:34:18.021Z,7.66
2018-03-27T09:36:47.190Z,7.76
2018-03-27T09:39:15.535Z,7.77
2018-03-27T09:41:44.185Z,8.03
2018-03-27T09:44:13.331Z,8.04
2018-03-27T09:46:41.708Z,8.04
2018-03-27T09:49:10.105Z,8.28
2018-03-27T09:51:38.389Z,8.41
2018-03-27T09:54:06.798Z,8.58
2018-03-27T09:56:37.420Z,8.55
2018-03-27T09:59:06.475Z,8.37
2018-03-27T10:01:39.976Z,8.59
2018-03-27T10:04:08.444Z,8.75
2018-03-27T10:06:36.728Z,8.50
2018-03-27T10:09:06.218Z,8.57
2018-03-27T10:11:34.489Z,8.67
2018-03-27T10:14:02.778Z,8.69
2018-03-27T10:16:31.041Z,8.94
2018-03-27T10:18:59.330Z,8.97
2018-03-27T10:21:27.919Z,8.84
2018-03-27T10:23:56.544Z,8.72
2018-03-27T10:26:25.362Z,8.49
2018-03-27T10:28:53.633Z,8.38
2018-03-27T10:31:23.508Z,8.52
2018-03-27T10:33:51.768Z,8.73
2018-03-27T10:36:20.173Z,8.65
2018-03-27T10:38:48.486Z,8.66
2018-03-27T10:41:18.059Z,8.80
2018-03-27T10:43:46.848Z,8.79
2018-03-27T10:46:17.141Z,8.93
2018-03-27T10:48:46.288Z,8.87
2018-03-27T10:51:15.104Z,8.89
2018-03-27T10:53:44.572Z,9.08
2018-03-27T10:56:12.977Z,9.07
2018-03-27T10:58:41.277Z,9.31
2018-03-27T11:01:10.339Z,9.46
2018-03-27T11:03:39.076Z,9.39
2018-03-27T11:06:07.356Z,9.23
2018-03-27T11:08:35.631Z,9.36
2018-03-27T11:11:04.036Z,9.61
2018-03-27T11:13:32.409Z,9.64
2018-03-27T11:16:00.691Z,9.70
2018-03-27T11:18:28.992Z,9.63
2018-03-27T11:20:57.298Z,10.04
2018-03-27T11:23:26.349Z,10.19
2018-03-27T11:25:54.667Z,10.11
2018-03-27T11:28:23.704Z,9.88
2018-03-27T11:30:52.008Z,10.38
2018-03-27T11:33:20.311Z,10.63
2018-03-27T11:35:48.593Z,10.74
2018-03-27T11:38:17.636Z,10.89
2018-03-27T11:40:45.937Z,11.03
2018-03-27T11:43:14.306Z,10.78
2018-03-27T11:45:43.363Z,10.39
2018-03-27T11:48:11.641Z,10.32
2018-03-27T11:50:39.941Z,10.36
2018-03-27T11:53:08.221Z,10.07
2018-03-27T11:55:38.152Z,9.96
2018-03-27T11:58:06.454Z,9.71
2018-03-27T12:00:34.736Z,9.75
2018-03-27T12:03:03.032Z,9.81
2018-03-27T12:05:32.071Z,9.83
2018-03-27T12:08:00.411Z,9.78
2018-03-27T12:10:29.472Z,9.71
2018-03-27T12:12:57.824Z,9.88
2018-03-27T12:15:26.367Z,9.91
2018-03-27T12:17:55.412Z,10.01
2018-03-27T12:20:23.723Z,10.14
2018-03-27T12:22:51.990Z,10.55
2018-03-27T12:25:20.331Z,10.46
2018-03-27T12:27:48.730Z,10.72
2018-03-27T12:30:17.516Z,11.16
2018-03-27T12:32:46.208Z,11.56
2018-03-27T12:35:14.579Z,12.21
2018-03-27T12:37:42.892Z,12.79
2018-03-27T12:40:11.152Z,13.48
2018-03-27T12:42:40.353Z,15.10
2018-03-27T12:45:08.712Z,16.11
2018-03-27T12:47:37.001Z,16.99
2018-03-27T12:50:05.307Z,15.47
2018-03-27T12:52:33.647Z,14.18
2018-03-27T12:55:01.930Z,13.78
2018-03-27T12:57:30.209Z,13.33
2018-03-27T12:59:58.583Z,13.35
2018-03-27T13:02:26.879Z,13.24
2018-03-27T13:04:55.776Z,13.23
2018-03-27T13:07:24.052Z,13.48
2018-03-27T13:09:55.202Z,13.62
2018-03-27T13:12:24.233Z,14.33
2018-03-27T13:14:54.001Z,14.98
2018-03-27T13:17:22.596Z,14.91
2018-03-27T13:19:51.142Z,13.76
2018-03-27T13:22:19.849Z,13.19
2018-03-27T13:24:48.214Z,13.25
2018-03-27T13:27:16.609Z,13.17
2018-03-27T13:29:44.896Z,13.13
2018-03-27T13:32:13.398Z,13.21
2018-03-27T13:34:41.743Z,13.66
2018-03-27T13:37:10.389Z,13.88
2018-03-27T13:39:39.621Z,13.86
2018-03-27T13:42:08.020Z,13.44
2018-03-27T13:44:36.309Z,13.53
2018-03-27T13:47:05.284Z,13.03
2018-03-27T13:49:33.555Z,12.63
2018-03-27T13:52:01.934Z,12.25
2018-03-27T13:54:31.119Z,11.74
2018-03-27T13:56:59.408Z,11.64
2018-03-27T13:59:27.752Z,11.58
2018-03-27T14:01:57.704Z,11.51
2018-03-27T14:04:26.020Z,11.32
2018-03-27T14:06:54.286Z,11.35
2018-03-27T14:09:22.791Z,11.26
2018-03-27T14:11:51.112Z,11.07
2018-03-27T14:14:20.138Z,10.76
2018-03-27T14:16:49.025Z,10.65
2018-03-27T14:19:17.385Z,10.53
2018-03-27T14:21:45.730Z,10.43
2018-03-27T14:24:14.780Z,10.27
2018-03-27T14:26:44.209Z,10.39
2018-03-27T14:29:13.048Z,10.35
2018-03-27T14:31:43.427Z,10.28
2018-03-27T14:34:11.746Z,10.18
2018-03-27T14:36:40.860Z,10.24
2018-03-27T14:39:09.430Z,10.22
2018-03-27T14:41:38.393Z,10.10
2018-03-27T14:44:06.705Z,10.14
2018-03-27T14:46:35.004Z,10.27
2018-03-27T14:49:03.442Z,10.11
2018-03-27T14:51:32.500Z,10.26
2018-03-27T14:54:00.777Z,10.20
2018-03-27T14:56:29.137Z,10.23
2018-03-27T14:58:57.600Z,10.18
2018-03-27T15:01:25.864Z,10.34
2018-03-27T15:03:54.159Z,10.58
2018-03-27T15:06:22.440Z,10.66
2018-03-27T15:08:50.823Z,10.94
2018-03-27T15:11:19.115Z,10.90
2018-03-27T15:13:47.423Z,10.95
2018-03-27T15:16:16.068Z,11.06
2018-03-27T15:18:45.607Z,10.86
2018-03-27T15:21:14.617Z,10.95
2018-03-27T15:23:43.768Z,10.40
2018-03-27T15:26:12.049Z,10.61
2018-03-27T15:28:41.101Z,10.55
2018-03-27T15:31:10.257Z,10.51
2018-03-27T15:33:38.614Z,10.30
2018-03-27T15:36:07.620Z,10.28
2018-03-27T15:38:35.893Z,10.32
2018-03-27T15:41:05.161Z,10.23
2018-03-27T15:43:34.449Z,10.07
2018-03-27T15:46:04.039Z,9.93
2018-03-27T15:48:32.683Z,9.67
2018-03-27T15:51:00.955Z,9.55
2018-03-27T15:53:29.548Z,9.55
2018-03-27T15:55:58.147Z,9.78
2018-03-27T15:58:26.415Z,9.68
2018-03-27T16:00:55.905Z,9.62
2018-03-27T16:03:24.301Z,9.69
2018-03-27T16:05:52.587Z,9.65
2018-03-27T16:08:20.987Z,9.69
2018-03-27T16:10:49.969Z,9.52
2018-03-27T16:13:18.428Z,9.27
2018-03-27T16:15:46.695Z,9.47
2018-03-27T16:18:14.969Z,9.41
2018-03-27T16:20:43.676Z,9.61
2018-03-27T16:23:11.937Z,9.27
2018-03-27T16:25:40.194Z,9.06
2018-03-27T16:28:09.732Z,9.13
2018-03-27T16:30:38.005Z,9.10
2018-03-27T16:33:07.437Z,9.18
2018-03-27T16:35:35.805Z,9.04
2018-03-27T16:38:04.090Z,8.97
2018-03-27T16:40:32.371Z,9.05
2018-03-27T16:43:00.672Z,8.96
2018-03-27T16:45:29.871Z,8.71
2018-03-27T16:47:58.143Z,8.73
2018-03-27T16:50:26.486Z,8.78
2018-03-27T16:52:55.327Z,8.68
2018-03-27T16:55:25.933Z,8.48
2018-03-27T16:57:54.784Z,8.47
2018-03-27T17:00:23.061Z,8.44
2018-03-27T17:02:51.449Z,8.41
2018-03-27T17:05:20.383Z,8.33
2018-03-27T17:07:48.889Z,8.42
2018-03-27T17:10:18.129Z,8.15
2018-03-27T17:12:46.416Z,8.15
2018-03-27T17:15:14.682Z,8.08
2018-03-27T17:17:43.063Z,8.09
2018-03-27T17:20:11.331Z,8.01
2018-03-27T17:22:40.401Z,8.02
2018-03-27T17:25:09.495Z,8.00
2018-03-27T17:27:39.293Z,7.94
2018-03-27T17:30:07.552Z,7.76
2018-03-27T17:32:35.859Z,7.80
2018-03-27T17:35:04.906Z,7.80
2018-03-27T17:37:33.200Z,7.80
2018-03-27T17:40:01.776Z,7.70
2018-03-27T17:42:30.183Z,7.51
2018-03-27T17:44:58.474Z,7.44
2018-03-27T17:47:27.326Z,7.41
2018-03-27T17:49:55.611Z,7.36
2018-03-27T17:52:24.483Z,7.29
2018-03-27T17:54:53.085Z,7.27
2018-03-27T17:57:21.992Z,7.22
2018-03-27T17:59:50.559Z,7.15
2018-03-27T18:02:18.847Z,7.21
2018-03-27T18:04:47.173Z,7.25
2018-03-27T18:07:16.514Z,7.24
2018-03-27T18:09:45.094Z,7.07
2018-03-27T18:12:13.422Z,7.09
2018-03-27T18:14:42.559Z,7.06
2018-03-27T18:17:11.284Z,7.24
2018-03-27T18:19:39.572Z,7.16
2018-03-27T18:22:07.946Z,7.08
2018-03-27T18:24:36.850Z,6.94
2018-03-27T18:27:05.149Z,6.79
2018-03-27T18:29:34.209Z,6.73
2018-03-27T18:32:02.513Z,6.91
2018-03-27T18:34:31.608Z,6.99
2018-03-27T18:37:00.679Z,6.69
2018-03-27T18:39:28.990Z,6.69
2018-03-27T18:41:58.060Z,6.61
2018-03-27T18:44:26.905Z,6.60
2018-03-27T18:46:55.210Z,6.44
2018-03-27T18:49:24.264Z,6.69
2018-03-27T18:51:52.545Z,6.59
2018-03-27T18:54:21.643Z,6.56
2018-03-27T18:56:49.941Z,6.47
2018-03-27T18:59:18.758Z,6.44
2018-03-27T19:01:47.065Z,6.50
2018-03-27T19:04:16.126Z,6.34
2018-03-27T19:06:44.482Z,6.41
2018-03-27T19:09:12.974Z,6.45
2018-03-27T19:11:41.265Z,6.44
2018-03-27T19:14:09.538Z,6.50
2018-03-27T19:16:38.122Z,6.44
2018-03-27T19:19:06.399Z,6.39
2018-03-27T19:21:34.659Z,6.46
2018-03-27T19:24:03.057Z,6.38
2018-03-27T19:26:31.351Z,6.30
2018-03-27T19:29:00.098Z,6.32
2018-03-27T19:31:28.389Z,6.30
2018-03-27T19:33:56.998Z,6.12
2018-03-27T19:36:25.574Z,6.09
2018-03-27T19:38:54.156Z,6.06
2018-03-27T19:41:22.437Z,6.01
2018-03-27T19:43:50.732Z,5.87
2018-03-27T19:46:19.304Z,5.79
2018-03-27T19:48:48.250Z,5.74
2018-03-27T19:51:16.541Z,5.67
2018-03-27T19:53:44.852Z,5.54
2018-03-27T19:56:13.160Z,5.60
2018-03-27T19:58:42.190Z,5.51
2018-03-27T20:01:10.492Z,5.41
2018-03-27T20:03:38.816Z,5.43
2018-03-27T20:06:07.863Z,5.35
2018-03-27T20:08:36.144Z,5.28
2018-03-27T20:11:04.477Z,5.29
2018-03-27T20:13:33.553Z,5.33
2018-03-27T20:16:01.841Z,5.28
2018-03-27T20:18:30.876Z,5.26
2018-03-27T20:20:59.679Z,5.18
2018-03-27T20:23:27.976Z,5.24
2018-03-27T20:25:56.327Z,5.27
2018-03-27T20:28:24.600Z,5.30
2018-03-27T20:30:52.880Z,5.23
2018-03-27T20:33:21.298Z,5.22
2018-03-27T20:35:49.975Z,5.25
2018-03-27T20:38:18.280Z,5.27
2018-03-27T20:40:48.572Z,5.34
2018-03-27T20:43:17.384Z,5.34
2018-03-27T20:45:45.694Z,5.21
2018-03-27T20:48:13.988Z,5.22
2018-03-27T20:50:42.256Z,5.19
2018-03-27T20:53:10.559Z,5.15
2018-03-27T20:55:39.263Z,5.07
2018-03-27T20:58:08.188Z,5.10
2018-03-27T21:00:38.142Z,5.10
2018-03-27T21:03:07.935Z,5.11
2018-03-27T21:05:37.229Z,5.19
2018-03-27T21:08:07.375Z,5.27
2018-03-27T21:10:35.655Z,5.28
2018-03-27T21:13:03.920Z,5.30
2018-03-27T21:15:32.186Z,5.34
2018-03-27T21:18:01.408Z,5.32
2018-03-27T21:20:29.731Z,5.36
2018-03-27T21:22:58.744Z,5.36
2018-03-27T21:25:27.170Z,5.34
2018-03-27T21:27:55.451Z,5.34
2018-03-27T21:30:23.741Z,5.42
2018-03-27T21:32:52.132Z,5.29
2018-03-27T21:35:21.462Z,5.27
2018-03-27T21:37:49.729Z,5.21
2018-03-27T21:40:18.226Z,5.29
2018-03-27T21:42:47.269Z,5.23
2018-03-27T21:45:15.567Z,5.17
2018-03-27T21:47:45.640Z,5.22
2018-03-27T21:50:13.930Z,5.19
2018-03-27T21:52:42.216Z,5.24
2018-03-27T21:55:10.631Z,5.48
2018-03-27T21:57:38.899Z,5.24
2018-03-27T22:00:09.015Z,5.27
2018-03-27T22:02:37.380Z,5.33
2018-03-27T22:05:05.680Z,5.19
2018-03-27T22:07:33.954Z,5.20
2018-03-27T22:10:02.233Z,5.22
2018-03-27T22:12:30.679Z,5.19
2018-03-27T22:14:58.969Z,5.16
2018-03-27T22:17:27.257Z,5.14
2018-03-27T22:19:55.648Z,5.12
2018-03-27T22:22:24.800Z,5.18
2018-03-27T22:24:53.101Z,5.16
2018-03-27T22:27:21.607Z,5.20
2018-03-27T22:29:50.710Z,5.09
2018-03-27T22:32:19.399Z,5.19
2018-03-27T22:34:47.705Z,5.22
2018-03-27T22:37:16.773Z,5.24
2018-03-27T22:39:46.833Z,5.27
2018-03-27T22:42:15.054Z,5.20
2018-03-27T22:44:43.327Z,5.17
2018-03-27T22:47:12.455Z,5.14
2018-03-27T22:49:40.732Z,5.09
2018-03-27T22:52:09.493Z,5.21
2018-03-27T22:54:37.772Z,5.15
2018-03-27T22:57:06.049Z,5.22
2018-03-27T22:59:34.620Z,5.17
2018-03-27T23:02:02.906Z,5.17
2018-03-27T23:04:31.543Z,5.03
2018-03-27T23:07:00.584Z,4.96
2018-03-27T23:09:28.857Z,5.04
2018-03-27T23:11:57.184Z,5.03
2018-03-27T23:14:25.439Z,5.07
2018-03-27T23:16:53.794Z,5.07
2018-03-27T23:19:22.048Z,5.09
2018-03-27T23:21:50.341Z,4.95
2018-03-27T23:24:18.641Z,4.98
2018-03-27T23:26:46.916Z,4.91
2018-03-27T23:29:15.616Z,4.91
2018-03-27T23:31:43.888Z,4.91
2018-03-27T23:34:12.168Z,4.92
2018-03-27T23:36:40.537Z,4.91
2018-03-27T23:39:08.809Z,5.00
2018-03-27T23:41:37.138Z,5.11
2018-03-27T23:44:05.568Z,5.08
2018-03-27T23:46:33.842Z,5.11
2018-03-27T23:49:02.134Z,5.20
2018-03-27T23:51:30.731Z,5.20
2018-03-27T23:53:58.996Z,5.16
2018-03-27T23:56:27.296Z,5.21
2018-03-27T23:58:55.648Z,5.16
